TFM - Tactical Decision Aid
ID: Runway Winds: CIG/VIS Threshold:

KMAF - Midland Intl, TX, US

Updated at: 2228 UTC 01 Dec 2021
Latest TAF at: 1726 UTC 01 Dec 2021

TAF Board

Time2153Z 01/23Z 02/00Z 02/01Z 02/02Z 02/03Z 02/04Z 02/05Z 02/06Z 02/07Z 02/08Z 02/09Z 02/10Z 02/11Z>>
Type OBS PRVL PRVL PRVL PRVL PRVL PRVL PRVL PRVL PRVL PRVL PRVL PRVL PRVL
VIS 10 >6 >6 >6 >6 >6 >6 >6 >6 >6 >6 >6 >6 >6
CIG -- 250 250 250 250 250 250 250 250 250 250 250 250 250
Cover CLR BKN BKN BKN BKN BKN BKN BKN BKN BKN BKN BKN BKN BKN
FltCat VFR VFR VFR VFR VFR VFR VFR VFR VFR VFR VFR VFR VFR VFR
WX -- -- -- -- -- -- -- -- -- -- -- -- -- --
WDir 270 190 190 190 190 190 190 190 190 190 190 190 190 190
WSpd 4 5 5 5 5 5 5 5 5 5 5 5 5 5
WGst -- -- -- -- -- -- -- -- -- -- -- -- -- --
WSHgt -- -- -- -- -- -- -- -- -- -- -- -- -- --
WSDir -- -- -- -- -- -- -- -- -- -- -- -- -- --
WSSpd -- -- -- -- -- -- -- -- -- -- -- -- -- --

TDA Impact Legend

  None Marginal Slight Moderate High
Visibility (sm) >5 3≤X≤5 2≤X<3 0.5≤X<2 <0.5
Ceiling (100 ft) >30 10≤X≤30 6≤X<10 2≤X<6 <2
Wind Speed (kt) <15 15≤X<25 25≤X<30 ≥30
Wind Gust (kt) <15 15≤X<25 25≤X<35 ≥35
Weather No Wx Reported VCTS -TS,-FZRA TS,FZRA +TS,+FZRA
TAF
KMAF 011726Z 0118/0218 29008KT P6SM SCT200
  FM012300 19005KT P6SM BKN250


METAR
KMAF 012153Z 27004KT 10SM CLR 26/M03 A3012 RMK AO2 SLP172 T02561028
KMAF 012053Z 00000KT 10SM CLR 26/M03 A3012 RMK AO2 SLP174 T02561033 56019
KMAF 011953Z 00000KT 10SM CLR 26/M04 A3013 RMK AO2 SLP174 T02611039

Radar Display
Forecast Discussion